createdAt,value
2022-12-23T00:00:39.281Z,5.68
2022-12-23T00:03:06.420Z,6.72
2022-12-23T00:05:40.078Z,6.30
2022-12-23T00:08:08.391Z,3.75
2022-12-23T00:10:39.129Z,4.90
2022-12-23T00:13:24.783Z,4.32
2022-12-23T00:16:00.444Z,5.65
2022-12-23T00:18:27.506Z,6.55
2022-12-23T00:21:08.884Z,6.22
2022-12-23T00:23:39.406Z,3.70
2022-12-23T00:26:07.076Z,4.10
2022-12-23T00:28:34.290Z,9.38
2022-12-23T00:31:06.911Z,8.90
2022-12-23T00:33:40.304Z,5.15
2022-12-23T00:36:21.118Z,4.38
2022-12-23T00:39:11.513Z,6.68
2022-12-23T00:41:57.720Z,4.15
2022-12-23T00:44:24.984Z,2.92
2022-12-23T00:46:51.948Z,3.63
2022-12-23T00:49:38.208Z,5.97
2022-12-23T00:52:07.599Z,6.57
2022-12-23T00:54:34.538Z,6.95
2022-12-23T00:57:02.487Z,5.50
2022-12-23T00:59:29.634Z,5.07
2022-12-23T01:02:15.160Z,3.95
2022-12-23T01:05:00.960Z,5.10
2022-12-23T01:07:28.055Z,6.13
2022-12-23T01:09:55.000Z,3.03
2022-12-23T01:12:21.980Z,8.18
2022-12-23T01:14:48.978Z,10.07
2022-12-23T01:17:16.570Z,9.82
2022-12-23T01:19:43.551Z,8.07
2022-12-23T01:22:10.634Z,9.18
2022-12-23T01:24:37.576Z,7.50
2022-12-23T01:27:04.467Z,5.78
2022-12-23T01:29:31.551Z,4.60
2022-12-23T01:31:58.563Z,5.82
2022-12-23T01:34:29.699Z,8.07
2022-12-23T01:36:59.599Z,5.55
2022-12-23T01:39:26.541Z,8.13
2022-12-23T01:42:12.051Z,8.88
2022-12-23T01:44:57.540Z,7.65
2022-12-23T01:47:40.677Z,9.40
2022-12-23T01:50:36.097Z,5.07
2022-12-23T01:53:09.824Z,7.50
2022-12-23T01:55:42.972Z,5.38
2022-12-23T01:58:15.346Z,8.50
2022-12-23T02:01:01.696Z,10.30
2022-12-23T02:03:44.618Z,6.15
2022-12-23T02:06:40.858Z,7.82
2022-12-23T02:09:23.307Z,12.40
2022-12-23T02:12:01.865Z,4.93
2022-12-23T02:14:53.298Z,3.97
2022-12-23T02:17:52.740Z,4.35
2022-12-23T02:20:19.694Z,5.22
2022-12-23T02:23:26.733Z,7.68
2022-12-23T02:26:12.207Z,7.47
2022-12-23T02:29:06.844Z,5.32
2022-12-23T02:31:49.744Z,8.45
2022-12-23T02:34:25.200Z,3.63
2022-12-23T02:37:05.519Z,8.63
2022-12-23T02:39:37.981Z,8.05
2022-12-23T02:42:15.683Z,11.23
2022-12-23T02:44:52.980Z,7.50
2022-12-23T02:47:34.850Z,8.32
2022-12-23T02:50:08.375Z,9.73
2022-12-23T02:52:38.562Z,7.13
2022-12-23T02:55:16.834Z,5.70
2022-12-23T02:57:48.088Z,2.33
2022-12-23T03:00:15.785Z,7.13
2022-12-23T03:02:43.180Z,5.63
2022-12-23T03:05:28.384Z,8.60
2022-12-23T03:07:59.921Z,9.60
2022-12-23T03:10:29.873Z,6.80
2022-12-23T03:13:04.927Z,7.85
2022-12-23T03:16:02.309Z,3.65
2022-12-23T03:18:54.617Z,1.50
2022-12-23T03:21:39.685Z,10.07
2022-12-23T03:24:24.578Z,10.50
2022-12-23T03:26:57.634Z,6.35
2022-12-23T03:29:43.004Z,9.00
2022-12-23T03:32:13.356Z,8.32
2022-12-23T03:34:45.687Z,7.35
2022-12-23T03:37:16.603Z,6.60
2022-12-23T03:40:21.848Z,6.53
2022-12-23T03:43:12.050Z,5.68
2022-12-23T03:45:45.498Z,3.47
2022-12-23T03:48:23.244Z,7.35
2022-12-23T03:50:53.827Z,9.35
2022-12-23T03:53:44.852Z,7.63
2022-12-23T03:56:25.910Z,1.77
2022-12-23T03:58:59.399Z,12.05
2022-12-23T04:01:29.253Z,5.80
2022-12-23T04:04:27.468Z,6.68
2022-12-23T04:07:05.303Z,6.57
2022-12-23T04:09:32.337Z,4.28
2022-12-23T04:11:59.523Z,5.80
2022-12-23T04:14:26.468Z,7.00
2022-12-23T04:16:58.517Z,6.78
2022-12-23T04:19:25.764Z,5.45
2022-12-23T04:21:55.853Z,4.18
2022-12-23T04:24:22.878Z,4.57
2022-12-23T04:26:49.791Z,5.30
2022-12-23T04:29:16.833Z,8.90
2022-12-23T04:31:43.787Z,3.58
2022-12-23T04:34:10.724Z,3.67
2022-12-23T04:36:37.703Z,5.00
2022-12-23T04:39:04.688Z,4.07
2022-12-23T04:41:31.691Z,4.57
2022-12-23T04:43:58.607Z,3.90
2022-12-23T04:46:25.563Z,4.18
2022-12-23T04:48:52.702Z,3.38
2022-12-23T04:51:19.624Z,2.53
2022-12-23T04:53:46.540Z,7.57
2022-12-23T04:56:13.682Z,3.80
2022-12-23T04:58:40.874Z,3.40
2022-12-23T05:01:10.442Z,3.08
2022-12-23T05:03:38.581Z,3.05
2022-12-23T05:06:05.872Z,5.55
2022-12-23T05:08:33.002Z,4.93
2022-12-23T05:11:00.174Z,3.03
2022-12-23T05:13:27.504Z,4.15
2022-12-23T05:15:55.109Z,4.20
2022-12-23T05:18:22.716Z,2.60
2022-12-23T05:20:50.434Z,3.53
2022-12-23T05:23:17.536Z,3.28
2022-12-23T05:25:50.055Z,3.03
2022-12-23T05:28:16.961Z,2.88
2022-12-23T05:30:43.924Z,5.30
2022-12-23T05:33:11.274Z,6.40
2022-12-23T05:35:38.202Z,3.33
2022-12-23T05:38:05.180Z,6.32
2022-12-23T05:40:32.721Z,3.75
2022-12-23T05:43:00.491Z,4.63
2022-12-23T05:45:27.517Z,3.00
2022-12-23T05:47:54.508Z,6.35
2022-12-23T05:50:21.495Z,2.97
2022-12-23T05:52:48.522Z,2.63
2022-12-23T05:55:15.517Z,0.98
2022-12-23T05:57:42.448Z,6.07
2022-12-23T06:00:13.306Z,3.85
2022-12-23T06:02:40.799Z,5.10
2022-12-23T06:05:08.342Z,4.78
2022-12-23T06:07:35.478Z,2.65
2022-12-23T06:10:02.429Z,2.72
2022-12-23T06:12:29.418Z,3.63
2022-12-23T06:14:56.408Z,4.93
2022-12-23T06:17:23.449Z,3.10
2022-12-23T06:19:50.473Z,4.47
2022-12-23T06:22:18.132Z,1.95
2022-12-23T06:24:45.322Z,3.88
2022-12-23T06:27:12.281Z,4.95
2022-12-23T06:29:39.289Z,3.67
2022-12-23T06:32:06.731Z,3.63
2022-12-23T06:34:33.992Z,2.95
2022-12-23T06:37:00.913Z,3.83
2022-12-23T06:39:28.052Z,2.60
2022-12-23T06:41:55.132Z,2.25
2022-12-23T06:44:22.067Z,3.10
2022-12-23T06:46:49.005Z,3.15
2022-12-23T06:49:15.967Z,3.47
2022-12-23T06:51:42.945Z,2.08
2022-12-23T06:54:12.003Z,8.02
2022-12-23T06:56:39.768Z,6.28
2022-12-23T06:59:06.957Z,4.03
2022-12-23T07:01:34.034Z,4.00
2022-12-23T07:04:02.012Z,3.55
2022-12-23T07:06:29.246Z,3.13
2022-12-23T07:08:56.372Z,1.05
2022-12-23T07:11:23.302Z,6.15
2022-12-23T07:13:50.429Z,4.90
2022-12-23T07:16:17.470Z,6.40
2022-12-23T07:18:44.549Z,4.80
2022-12-23T07:21:21.176Z,7.50
2022-12-23T07:23:51.751Z,4.50
2022-12-23T07:26:18.645Z,7.22
2022-12-23T07:28:48.107Z,5.18
2022-12-23T07:31:15.515Z,9.00
2022-12-23T07:33:42.659Z,9.52
2022-12-23T07:36:10.242Z,4.38
2022-12-23T07:38:37.371Z,3.17
2022-12-23T07:41:04.479Z,5.15
2022-12-23T07:43:31.487Z,4.55
2022-12-23T07:46:00.572Z,4.93
2022-12-23T07:48:28.030Z,4.22
2022-12-23T07:51:03.986Z,4.20
2022-12-23T07:53:31.040Z,3.60
2022-12-23T07:55:58.524Z,7.75
2022-12-23T07:58:25.759Z,5.53
2022-12-23T08:01:00.372Z,1.73
2022-12-23T08:03:27.452Z,5.28
2022-12-23T08:06:06.056Z,7.63
2022-12-23T08:08:33.735Z,3.53
2022-12-23T08:11:03.038Z,3.40
2022-12-23T08:13:30.723Z,8.52
2022-12-23T08:15:59.308Z,3.53
2022-12-23T08:18:27.475Z,3.05
2022-12-23T08:20:56.151Z,3.50
2022-12-23T08:23:25.022Z,7.70
2022-12-23T08:26:11.469Z,2.65
2022-12-23T08:28:39.859Z,3.22
2022-12-23T08:31:10.375Z,5.53
2022-12-23T08:33:38.665Z,4.65
2022-12-23T08:36:08.640Z,5.03
2022-12-23T08:38:36.392Z,5.32
2022-12-23T08:41:08.731Z,4.80
2022-12-23T08:43:36.248Z,7.13
2022-12-23T08:46:04.583Z,3.63
2022-12-23T08:48:32.547Z,2.80
2022-12-23T08:51:07.570Z,4.40
2022-12-23T08:53:36.541Z,2.40
2022-12-23T08:56:05.918Z,3.67
2022-12-23T08:58:37.506Z,5.95
2022-12-23T09:01:09.646Z,9.30
2022-12-23T09:03:38.431Z,4.07
2022-12-23T09:06:10.720Z,7.03
2022-12-23T09:08:38.548Z,5.35
2022-12-23T09:11:08.393Z,4.10
2022-12-23T09:13:36.098Z,5.63
2022-12-23T09:16:04.484Z,5.60
2022-12-23T09:18:32.140Z,5.20
2022-12-23T09:21:07.120Z,6.60
2022-12-23T09:23:34.781Z,1.95
2022-12-23T09:26:01.751Z,4.43
2022-12-23T09:28:28.752Z,3.50
2022-12-23T09:30:55.728Z,9.18
2022-12-23T09:33:22.932Z,4.20
2022-12-23T09:35:50.276Z,7.93
2022-12-23T09:38:17.314Z,7.45
2022-12-23T09:40:45.796Z,5.40
2022-12-23T09:43:43.033Z,5.30
2022-12-23T09:46:15.833Z,7.22
2022-12-23T09:49:13.436Z,3.53
2022-12-23T09:51:40.438Z,3.30
2022-12-23T09:54:29.557Z,2.95
2022-12-23T09:56:58.875Z,2.28
2022-12-23T09:59:55.644Z,5.00
2022-12-23T10:02:31.545Z,6.97
2022-12-23T10:05:29.199Z,6.60
2022-12-23T10:08:02.758Z,4.95
2022-12-23T10:10:44.353Z,9.30
2022-12-23T10:13:34.980Z,6.55
2022-12-23T10:16:12.844Z,3.03
2022-12-23T10:19:13.709Z,3.78
2022-12-23T10:21:47.656Z,4.55
2022-12-23T10:24:28.943Z,2.83
2022-12-23T10:27:03.166Z,7.63
2022-12-23T10:29:37.417Z,3.15
2022-12-23T10:32:18.223Z,2.65
2022-12-23T10:35:32.524Z,4.85
2022-12-23T10:38:05.597Z,2.15
2022-12-23T10:40:46.620Z,4.30
2022-12-23T10:43:28.530Z,3.55
2022-12-23T10:46:20.070Z,2.60
2022-12-23T10:49:05.859Z,6.18
2022-12-23T10:51:53.754Z,2.85
2022-12-23T10:54:26.930Z,5.05
2022-12-23T10:56:54.700Z,2.58
2022-12-23T10:59:42.162Z,5.75
2022-12-23T11:02:12.494Z,2.17
2022-12-23T11:04:50.196Z,4.90
2022-12-23T11:10:17.249Z,2.47
2022-12-23T11:12:47.533Z,4.90
2022-12-23T11:15:33.756Z,3.65
2022-12-23T11:18:12.327Z,1.70
2022-12-23T11:20:41.461Z,2.90
2022-12-23T11:23:26.876Z,4.30
2022-12-23T11:26:18.381Z,3.42
2022-12-23T11:28:56.334Z,2.90
2022-12-23T11:31:28.573Z,1.40
2022-12-23T11:34:03.030Z,4.05
2022-12-23T11:36:31.512Z,1.83
2022-12-23T11:39:26.227Z,3.95
2022-12-23T11:42:02.412Z,4.18
2022-12-23T11:44:33.857Z,3.38
2022-12-23T11:47:32.044Z,1.98
2022-12-23T11:50:01.733Z,3.67
2022-12-23T11:52:33.901Z,4.03
2022-12-23T11:55:03.462Z,5.82
2022-12-23T11:57:39.703Z,2.63
2022-12-23T12:00:18.053Z,1.90
2022-12-23T12:02:47.676Z,3.03
2022-12-23T12:05:21.148Z,6.28
2022-12-23T12:07:49.999Z,5.85
2022-12-23T12:10:21.302Z,3.58
2022-12-23T12:13:05.499Z,4.80
2022-12-23T12:15:54.204Z,2.92
2022-12-23T12:18:22.142Z,1.50
2022-12-23T12:20:54.035Z,4.28
2022-12-23T12:23:36.495Z,4.10
2022-12-23T12:26:10.562Z,3.97
2022-12-23T12:28:47.140Z,3.05
2022-12-23T12:31:35.593Z,2.60
2022-12-23T12:34:02.593Z,3.22
2022-12-23T12:36:38.189Z,5.80
2022-12-23T12:39:05.414Z,4.40
2022-12-23T12:41:39.805Z,4.38
2022-12-23T12:44:24.651Z,4.72
2022-12-23T12:46:58.588Z,5.28
2022-12-23T12:49:49.699Z,7.53
2022-12-23T12:52:21.943Z,4.72
2022-12-23T12:55:15.049Z,5.50
2022-12-23T12:57:42.414Z,6.28
2022-12-23T13:00:22.376Z,3.38
2022-12-23T13:03:11.208Z,4.57
2022-12-23T13:05:54.183Z,6.10
2022-12-23T13:09:01.837Z,5.35
2022-12-23T13:11:47.237Z,5.38
2022-12-23T13:14:47.218Z,1.98
2022-12-23T13:17:20.734Z,3.38
2022-12-23T13:19:52.361Z,4.78
2022-12-23T13:22:38.711Z,6.55
2022-12-23T13:25:14.275Z,6.05
2022-12-23T13:27:53.784Z,2.67
2022-12-23T13:30:23.908Z,5.53
2022-12-23T13:33:28.362Z,4.50
2022-12-23T13:36:05.017Z,7.10
2022-12-23T13:38:47.377Z,3.65
2022-12-23T13:41:45.137Z,5.03
2022-12-23T13:44:18.305Z,7.78
2022-12-23T13:47:06.541Z,4.65
2022-12-23T13:49:40.821Z,5.35
2022-12-23T13:52:18.618Z,5.65
2022-12-23T13:55:15.422Z,11.13
2022-12-23T13:57:58.941Z,12.63
2022-12-23T14:00:33.330Z,15.60
2022-12-23T14:03:00.847Z,17.88
2022-12-23T14:05:37.024Z,19.35
2022-12-23T14:08:08.283Z,16.95
2022-12-23T14:10:38.107Z,21.50
2022-12-23T14:13:08.728Z,19.05
2022-12-23T14:15:54.191Z,10.98
2022-12-23T14:18:34.294Z,5.95
2022-12-23T14:21:04.238Z,13.75
2022-12-23T14:24:08.804Z,20.58
2022-12-23T14:26:46.320Z,25.92
2022-12-23T14:29:13.345Z,29.83
2022-12-23T14:31:43.709Z,29.63
2022-12-23T14:34:23.013Z,31.42
2022-12-23T14:37:21.113Z,21.52
2022-12-23T14:39:49.625Z,25.10
2022-12-23T14:42:34.372Z,18.73
2022-12-23T14:45:34.510Z,12.38
2022-12-23T14:48:02.695Z,10.77
2022-12-23T14:50:55.659Z,4.88
2022-12-23T14:53:25.867Z,5.40
2022-12-23T14:56:19.965Z,6.57
2022-12-23T14:58:54.045Z,8.32
2022-12-23T15:01:24.110Z,7.68
2022-12-23T15:03:59.255Z,7.20
2022-12-23T15:06:36.851Z,5.28
2022-12-23T15:09:05.274Z,5.68
2022-12-23T15:11:34.623Z,5.82
2022-12-23T15:14:08.034Z,8.15
2022-12-23T15:16:39.805Z,3.28
2022-12-23T15:19:28.155Z,4.68
2022-12-23T15:22:21.136Z,8.30
2022-12-23T15:24:51.082Z,5.68
2022-12-23T15:27:29.833Z,3.53
2022-12-23T15:29:57.722Z,3.50
2022-12-23T15:32:26.257Z,4.90
2022-12-23T15:35:02.619Z,3.17
2022-12-23T15:37:31.220Z,4.30
2022-12-23T15:40:09.496Z,4.03
2022-12-23T15:42:38.907Z,5.28
2022-12-23T15:45:31.296Z,4.03
2022-12-23T15:47:58.527Z,5.07
2022-12-23T15:50:25.869Z,5.53
2022-12-23T15:52:56.102Z,6.85
2022-12-23T15:55:31.182Z,3.05
2022-12-23T15:57:59.429Z,3.60
2022-12-23T16:00:40.700Z,4.50
2022-12-23T16:03:24.062Z,9.13
2022-12-23T16:05:51.297Z,4.53
2022-12-23T16:08:28.629Z,2.22
2022-12-23T16:11:06.011Z,6.78
2022-12-23T16:13:33.536Z,3.45
2022-12-23T16:16:42.704Z,8.00
2022-12-23T16:19:38.437Z,5.18
2022-12-23T16:22:12.831Z,8.45
2022-12-23T16:24:46.788Z,3.80
2022-12-23T16:27:20.085Z,4.78
2022-12-23T16:29:48.809Z,8.05
2022-12-23T16:32:18.010Z,2.40
2022-12-23T16:34:50.131Z,7.13
2022-12-23T16:37:17.082Z,9.70
2022-12-23T16:39:44.041Z,4.45
2022-12-23T16:42:10.995Z,3.80
2022-12-23T16:44:38.007Z,9.13
2022-12-23T16:47:13.655Z,2.63
2022-12-23T16:49:40.577Z,7.82
2022-12-23T16:52:09.311Z,4.68
2022-12-23T16:54:36.287Z,3.92
2022-12-23T16:57:03.258Z,3.38
2022-12-23T16:59:30.210Z,9.43
2022-12-23T17:02:03.076Z,3.20
2022-12-23T17:04:30.732Z,2.08
2022-12-23T17:06:57.684Z,4.38
2022-12-23T17:09:24.602Z,1.90
2022-12-23T17:11:53.898Z,6.07
2022-12-23T17:14:24.176Z,5.35
2022-12-23T17:16:51.702Z,1.50
2022-12-23T17:19:28.697Z,2.85
2022-12-23T17:22:01.208Z,4.03
2022-12-23T17:24:28.554Z,5.85
2022-12-23T17:26:59.183Z,6.82
2022-12-23T17:29:26.331Z,6.18
2022-12-23T17:31:53.552Z,7.70
2022-12-23T17:34:23.632Z,3.38
2022-12-23T17:36:51.458Z,2.67
2022-12-23T17:39:19.709Z,3.78
2022-12-23T17:41:46.875Z,4.35
2022-12-23T17:44:15.408Z,4.60
2022-12-23T17:46:42.833Z,6.15
2022-12-23T17:49:09.899Z,6.30
2022-12-23T17:51:39.471Z,6.00
2022-12-23T17:54:06.610Z,7.70
2022-12-23T17:56:33.663Z,6.47
2022-12-23T17:59:00.703Z,11.82
2022-12-23T18:01:32.257Z,7.72
2022-12-23T18:04:00.552Z,5.60
2022-12-23T18:06:29.042Z,8.38
2022-12-23T18:08:59.255Z,10.38
2022-12-23T18:11:39.630Z,11.70
2022-12-23T18:14:13.196Z,10.13
2022-12-23T18:16:40.206Z,8.57
2022-12-23T18:19:18.154Z,6.68
2022-12-23T18:21:45.688Z,6.90
2022-12-23T18:24:12.635Z,7.22
2022-12-23T18:26:39.674Z,6.68
2022-12-23T18:29:06.631Z,7.25
2022-12-23T18:31:33.704Z,7.93
2022-12-23T18:34:00.750Z,5.18
2022-12-23T18:36:31.570Z,7.72
2022-12-23T18:38:58.756Z,6.40
2022-12-23T18:41:27.592Z,7.63
2022-12-23T18:43:54.836Z,6.30
2022-12-23T18:46:22.086Z,7.22
2022-12-23T18:48:49.654Z,9.75
2022-12-23T18:51:18.798Z,7.50
2022-12-23T18:53:46.707Z,5.80
2022-12-23T18:56:21.199Z,8.13
2022-12-23T18:58:48.474Z,6.93
2022-12-23T19:01:16.630Z,4.90
2022-12-23T19:03:44.736Z,8.25
2022-12-23T19:06:14.828Z,5.57
2022-12-23T19:08:42.536Z,7.63
2022-12-23T19:11:15.503Z,5.43
2022-12-23T19:13:42.500Z,8.45
2022-12-23T19:16:14.359Z,7.10
2022-12-23T19:18:41.672Z,4.90
2022-12-23T19:21:09.470Z,7.40
2022-12-23T19:23:37.190Z,6.28
2022-12-23T19:26:06.298Z,6.43
2022-12-23T19:28:33.995Z,5.93
2022-12-23T19:31:12.064Z,7.32
2022-12-23T19:33:39.788Z,11.93
2022-12-23T19:36:23.078Z,10.02
2022-12-23T19:38:50.648Z,7.53
2022-12-23T19:41:18.495Z,6.53
2022-12-23T19:43:46.784Z,6.68
2022-12-23T19:46:15.577Z,5.72
2022-12-23T19:48:49.662Z,2.75
2022-12-23T19:51:27.316Z,8.15
2022-12-23T19:54:12.123Z,3.90
2022-12-23T19:56:39.118Z,4.53
2022-12-23T19:59:06.061Z,4.00
2022-12-23T20:01:33.320Z,5.25
2022-12-23T20:04:00.403Z,4.03
2022-12-23T20:06:35.614Z,4.93
2022-12-23T20:09:06.522Z,4.90
2022-12-23T20:11:39.266Z,5.32
2022-12-23T20:14:07.777Z,6.85
2022-12-23T20:16:36.119Z,3.40
2022-12-23T20:19:03.396Z,6.68
2022-12-23T20:21:30.645Z,4.57
2022-12-23T20:23:57.817Z,4.00
2022-12-23T20:26:25.006Z,7.70
2022-12-23T20:28:51.988Z,6.68
2022-12-23T20:31:27.931Z,4.70
2022-12-23T20:33:55.955Z,6.30
2022-12-23T20:36:26.635Z,5.50
2022-12-23T20:38:54.061Z,4.85
2022-12-23T20:41:23.446Z,7.20
2022-12-23T20:44:23.302Z,8.30
2022-12-23T20:46:42.572Z,5.55
2022-12-23T20:49:09.552Z,5.38
2022-12-23T20:51:36.511Z,8.48
2022-12-23T20:54:03.522Z,7.45
2022-12-23T20:56:31.622Z,11.20
2022-12-23T20:58:59.524Z,8.77
2022-12-23T21:01:32.295Z,7.88
2022-12-23T21:04:02.515Z,10.88
2022-12-23T21:06:30.911Z,7.15
2022-12-23T21:08:59.971Z,4.88
2022-12-23T21:11:31.883Z,7.70
2022-12-23T21:14:06.276Z,8.32
2022-12-23T21:16:35.407Z,8.13
2022-12-23T21:19:03.262Z,8.73
2022-12-23T21:21:31.921Z,11.02
2022-12-23T21:24:04.534Z,5.22
2022-12-23T21:26:33.779Z,6.45
2022-12-23T21:29:01.999Z,6.57
2022-12-23T21:31:31.173Z,9.20
2022-12-23T21:33:58.901Z,10.60
2022-12-23T21:36:29.164Z,7.07
2022-12-23T21:38:56.430Z,8.32
2022-12-23T21:41:25.717Z,6.28
2022-12-23T21:43:52.815Z,6.38
2022-12-23T21:46:23.940Z,8.88
2022-12-23T21:48:51.515Z,6.53
2022-12-23T21:51:22.169Z,7.10
2022-12-23T21:53:52.530Z,8.43
2022-12-23T21:56:28.081Z,9.38
2022-12-23T21:59:00.222Z,9.27
2022-12-23T22:01:27.756Z,5.07
2022-12-23T22:03:55.770Z,5.72
2022-12-23T22:06:32.035Z,5.15
2022-12-23T22:08:59.910Z,5.28
2022-12-23T22:11:32.474Z,9.30
2022-12-23T22:14:01.487Z,9.13
2022-12-23T22:16:30.082Z,6.13
2022-12-23T22:18:58.359Z,12.20
2022-12-23T22:21:27.480Z,7.43
2022-12-23T22:23:55.608Z,12.65
2022-12-23T22:26:26.319Z,8.77
2022-12-23T22:28:55.553Z,9.85
2022-12-23T22:31:40.029Z,9.68
2022-12-23T22:34:08.786Z,5.18
2022-12-23T22:36:36.127Z,11.18
2022-12-23T22:39:03.478Z,6.82
2022-12-23T22:41:31.637Z,8.05
2022-12-23T22:43:59.372Z,4.05
2022-12-23T22:46:26.856Z,6.53
2022-12-23T22:48:54.386Z,6.25
2022-12-23T22:51:24.162Z,8.23
2022-12-23T22:53:51.127Z,5.22
2022-12-23T22:56:20.253Z,8.23
2022-12-23T22:58:47.637Z,9.02
2022-12-23T23:01:30.429Z,10.52
2022-12-23T23:03:59.831Z,5.32
2022-12-23T23:06:31.576Z,8.75
2022-12-23T23:08:58.878Z,7.93
2022-12-23T23:11:27.553Z,10.57
2022-12-23T23:13:54.892Z,9.57
2022-12-23T23:16:22.418Z,9.07
2022-12-23T23:18:49.854Z,4.65
2022-12-23T23:21:17.458Z,11.88
2022-12-23T23:23:48.059Z,6.57
2022-12-23T23:26:15.225Z,5.50
2022-12-23T23:28:42.206Z,8.68
2022-12-23T23:33:57.922Z,5.38
2022-12-23T23:36:25.136Z,5.80
2022-12-23T23:38:52.148Z,9.73
2022-12-23T23:41:23.421Z,12.18
2022-12-23T23:43:51.707Z,8.27
2022-12-23T23:46:19.258Z,9.27
2022-12-23T23:48:46.438Z,8.63
2022-12-23T23:51:13.452Z,9.52
2022-12-23T23:53:40.777Z,9.35
2022-12-23T23:56:08.833Z,6.05
2022-12-23T23:58:37.272Z,9.20
